EBCIELLX

Guest
Details From EBCI - Brussels South - Charleroi
To ELLX - Luxembourg
Flight Number -
Tags generated
Created
Modified
Stats Distance 85 nm / 157 km
Max Altitude 3,200 ft / 975 m
Waypoints 3
Social Downloads 0
Likes 0
Share

Download

Looking for another format? Having issues loading an existing format? Contact us
Advertisement - Login to hide

Notes

Basic altitude profile: - Ascent Rate: 2500ft/min - Ascent Speed: 250kts - Cruise Altitude: 35000ft - Cruise Speed: 200kts - Descent Rate: 1000ft/min - Descent Speed: 150kts Options: - Use NATs: yes - Use PACOTS: yes - Use low airways: yes - Use high airways: yes

Route

EBCI IDOSA ELLX

ID Type Via Altitude (ft/m) Position (lat/lon) Dist (leg/tot) Name
O EBCI APT - 0 / 0 50.45995 / 4.45312 - / 0 nm Brussels South - Charleroi
IDOSA FIX - 3,200 / 975 49.74165 / 5.86978 69 / 69 nm
O ELLX APT - 0 / 0 49.62660 / 6.21151 14 / 84 nm Luxembourg

Altitude Profile

Advertisement - Login to hide

EBCI

Details ICAO EBCI (CRL)
Name Brussels South - Charleroi
Region Belgium
Timezone Europe/Brussels (UTC+2.0)
Stats Elevation 612 ft / 187 m (AMSL)
Location 50.459900° 4.453110°
Runways 1
Magnetic Variation 1.493° E

METAR

EBCI 050650Z 19007KT CAVOK 18/07 Q1017 NOSIG

Decode

TAF

TAF EBCI 050500Z 0506/0612 19005KT CAVOK

Decode

Departure Runways

ID Width Length Bearing (true/mag) Surface Threshold Overrun Markings Lighting
07 148 ft / 45 m 8,347 ft / 2,544 m 65.45° / 63.96° ASPHALT 1,470 ft / 448 m 0 ft / 0 m PREC-APP CENTERLINE EDGE THRESHOLD MALS TDZ REIL-UNI
25 148 ft / 45 m 8,347 ft / 2,544 m 245.48° / 243.98° ASPHALT 0 ft / 0 m 0 ft / 0 m UK-PREC-APP CENTERLINE EDGE THRESHOLD ALSF-I REIL-OMNI

ELLX

Details ICAO ELLX (LUX)
Name Luxembourg
Region Luxembourg
Timezone Europe/Luxembourg (UTC+2.0)
Stats Elevation 1,234 ft / 376 m (AMSL)
Location 49.626500° 6.211590°
Runways 1
Magnetic Variation 2.036° E

METAR

ELLX 050650Z 13004KT 050V200 CAVOK 17/09 Q1019 NOSIG

Decode

TAF

TAF ELLX 050500Z 0506/0612 14005KT CAVOK

Decode

Destination Runways

ID Width Length Bearing (true/mag) Surface Threshold Overrun Markings Lighting
06 197 ft / 60 m 13,140 ft / 4,005 m 60.19° / 58.15° ASPHALT 0 ft / 0 m 0 ft / 0 m PREC-APP CENTERLINE EDGE THRESHOLD ALSF-II REIL-OMNI
24 197 ft / 60 m 13,140 ft / 4,005 m 240.22° / 238.19° ASPHALT 0 ft / 0 m 171 ft / 52 m PREC-APP CENTERLINE EDGE THRESHOLD ALSF-II TDZ REIL-OMNI

Approach Navaids

Runway Type Ident Frequency Range Bearing (true/mag) Slope Elevation
06 DME ILE 109.90 MHz 18 nm / 33 km - - 1,158 ft / 353 m (AMSL)
06 LOC-ILS ILE 109.90 MHz 18 nm / 33 km 60.17° / 58.13 ° - 1,233 ft / 376 m (AMSL)
06 GS ILE 109.90 MHz 10 nm / 19 km 60.17° / 58.13 ° 3.00° 1,233 ft / 376 m (AMSL)
24 DME ILW 110.70 MHz 18 nm / 33 km - - 1,158 ft / 353 m (AMSL)
24 GS ILW 110.70 MHz 10 nm / 19 km 240.17° / 238.13 ° 3.00° 1,233 ft / 376 m (AMSL)
24 LOC-ILS ILW 110.70 MHz 18 nm / 33 km 240.17° / 238.13 ° - 1,233 ft / 376 m (AMSL)

Popular Alternatives